createdAt,value
2023-03-10T00:00:14.810Z,528.00
2023-03-10T00:04:14.909Z,523.00
2023-03-10T00:08:14.832Z,504.00
2023-03-10T00:12:14.874Z,507.00
2023-03-10T00:16:14.851Z,512.00
2023-03-10T00:20:14.883Z,509.00
2023-03-10T00:24:14.940Z,512.00
2023-03-10T00:28:14.937Z,517.00
2023-03-10T00:32:15.032Z,510.00
2023-03-10T00:36:15.098Z,521.00
2023-03-10T00:40:15.153Z,512.00
2023-03-10T00:44:15.120Z,508.00
2023-03-10T00:48:15.115Z,511.00
2023-03-10T00:52:15.099Z,507.00
2023-03-10T00:56:15.124Z,511.00
2023-03-10T01:00:15.138Z,511.00
2023-03-10T01:04:15.198Z,503.00
2023-03-10T01:08:15.145Z,508.00
2023-03-10T01:12:15.168Z,504.00
2023-03-10T01:16:15.207Z,517.00
2023-03-10T01:20:15.275Z,510.00
2023-03-10T01:24:15.252Z,511.00
2023-03-10T01:28:15.251Z,508.00
2023-03-10T01:32:15.304Z,500.00
2023-03-10T01:36:15.316Z,503.00
2023-03-10T01:40:15.272Z,514.00
2023-03-10T01:44:15.301Z,503.00
2023-03-10T01:48:15.385Z,511.00
2023-03-10T01:52:15.444Z,509.00
2023-03-10T01:56:15.426Z,510.00
2023-03-10T02:00:15.418Z,501.00
2023-03-10T02:04:15.439Z,509.00
2023-03-10T02:08:15.439Z,519.00
2023-03-10T02:12:15.456Z,511.00
2023-03-10T02:16:15.537Z,515.00
2023-03-10T02:20:15.510Z,508.00
2023-03-10T02:24:15.550Z,517.00
2023-03-10T02:28:15.581Z,511.00
2023-03-10T02:32:15.597Z,514.00
2023-03-10T02:36:15.652Z,503.00
2023-03-10T02:40:15.644Z,511.00
2023-03-10T02:44:15.645Z,518.00
2023-03-10T02:48:15.648Z,508.00
2023-03-10T02:52:15.662Z,505.00
2023-03-10T02:56:15.688Z,510.00
2023-03-10T03:00:15.670Z,500.00
2023-03-10T03:04:15.769Z,515.00
2023-03-10T03:08:15.707Z,508.00
2023-03-10T03:12:15.745Z,512.00
2023-03-10T03:16:15.823Z,510.00
2023-03-10T03:20:15.738Z,509.00
2023-03-10T03:24:15.833Z,505.00
2023-03-10T03:28:15.760Z,518.00
2023-03-10T03:32:15.815Z,513.00
2023-03-10T03:36:15.831Z,510.00
2023-03-10T03:40:15.896Z,512.00
2023-03-10T03:44:15.919Z,505.00
2023-03-10T03:48:15.910Z,513.00
2023-03-10T03:52:15.965Z,517.00
2023-03-10T03:56:15.978Z,505.00
2023-03-10T04:00:16.024Z,507.00
2023-03-10T04:04:15.993Z,513.00
2023-03-10T04:08:16.018Z,508.00
2023-03-10T04:12:16.038Z,505.00
2023-03-10T04:16:16.129Z,502.00
2023-03-10T04:20:16.085Z,511.00
2023-03-10T04:24:16.120Z,506.00
2023-03-10T04:28:16.125Z,512.00
2023-03-10T04:32:16.156Z,506.00
2023-03-10T04:36:16.273Z,509.00
2023-03-10T04:40:16.176Z,507.00
2023-03-10T04:44:29.832Z,508.00
2023-03-10T04:48:17.172Z,507.00
2023-03-10T04:52:16.115Z,500.00
2023-03-10T04:56:16.105Z,509.00
2023-03-10T05:00:16.101Z,509.00
2023-03-10T05:04:16.066Z,510.00
2023-03-10T05:08:15.990Z,509.00
2023-03-10T05:12:15.925Z,516.00
2023-03-10T05:16:15.990Z,501.00
2023-03-10T05:20:15.929Z,503.00
2023-03-10T05:24:15.960Z,503.00
2023-03-10T05:28:16.059Z,510.00
2023-03-10T05:32:16.137Z,505.00
2023-03-10T05:36:16.182Z,517.00
2023-03-10T05:40:16.168Z,508.00
2023-03-10T05:44:16.198Z,512.00
2023-03-10T05:48:16.253Z,512.00
2023-03-10T05:52:16.264Z,518.00
2023-03-10T05:56:16.330Z,505.00
2023-03-10T06:00:16.488Z,504.00
2023-03-10T06:04:16.610Z,507.00
2023-03-10T06:08:16.534Z,508.00
2023-03-10T06:12:16.555Z,508.00
2023-03-10T06:16:16.700Z,506.00
2023-03-10T06:20:16.626Z,513.00
2023-03-10T06:24:16.703Z,509.00
2023-03-10T06:28:16.776Z,505.00
2023-03-10T06:32:16.812Z,511.00
2023-03-10T06:36:16.860Z,523.00
2023-03-10T06:40:16.828Z,557.00
2023-03-10T06:44:17.014Z,544.00
2023-03-10T06:48:17.187Z,566.00
2023-03-10T06:52:17.169Z,581.00
2023-03-10T06:56:17.174Z,597.00
2023-03-10T07:00:17.116Z,609.00
2023-03-10T07:04:17.127Z,598.00
2023-03-10T07:08:17.029Z,612.00
2023-03-10T07:12:16.999Z,622.00
2023-03-10T07:16:16.947Z,636.00
2023-03-10T07:20:16.921Z,639.00
2023-03-10T07:24:16.932Z,623.00
2023-03-10T07:28:16.839Z,606.00
2023-03-10T07:32:17.101Z,622.00
2023-03-10T07:36:16.821Z,623.00
2023-03-10T07:40:16.733Z,817.00
2023-03-10T07:44:17.006Z,853.00
2023-03-10T07:48:16.912Z,952.00
2023-03-10T07:52:16.913Z,1038.00
2023-03-10T07:56:16.948Z,991.00
2023-03-10T08:00:17.131Z,891.00
2023-03-10T08:04:17.393Z,790.00
2023-03-10T08:08:17.097Z,726.00
2023-03-10T08:12:17.141Z,658.00
2023-03-10T08:16:17.225Z,729.00
2023-03-10T08:20:17.215Z,684.00
2023-03-10T08:24:17.626Z,658.00
2023-03-10T08:28:17.460Z,648.00
2023-03-10T08:36:36.471Z,500.00
2023-03-10T08:40:36.266Z,502.00
2023-03-10T08:44:36.128Z,520.00
2023-03-10T08:48:36.433Z,524.00
2023-03-10T08:52:36.076Z,505.00
2023-03-10T08:56:36.462Z,501.00
2023-03-10T09:00:36.061Z,522.00
2023-03-10T09:04:36.083Z,543.00
2023-03-10T09:08:35.886Z,607.00
2023-03-10T09:12:38.986Z,693.00
2023-03-10T09:16:35.976Z,666.00
2023-03-10T09:20:35.935Z,582.00
2023-03-10T09:24:35.948Z,590.00
2023-03-10T09:28:35.704Z,585.00
2023-03-10T09:32:35.978Z,555.00
2023-03-10T09:36:35.662Z,523.00
2023-03-10T09:40:35.575Z,629.00
2023-03-10T09:44:35.962Z,532.00
2023-03-10T09:48:35.924Z,501.00
2023-03-10T09:52:35.491Z,500.00
2023-03-10T09:56:35.473Z,497.00
2023-03-10T10:00:35.429Z,514.00
2023-03-10T10:04:35.483Z,544.00
2023-03-10T10:08:35.380Z,503.00
2023-03-10T10:12:35.291Z,507.00
2023-03-10T10:16:35.473Z,522.00
2023-03-10T10:20:35.596Z,506.00
2023-03-10T10:24:35.976Z,500.00
2023-03-10T10:28:36.066Z,514.00
2023-03-10T10:32:35.943Z,497.00
2023-03-10T10:36:35.998Z,502.00
2023-03-10T10:40:35.851Z,505.00
2023-03-10T10:44:35.815Z,642.00
2023-03-10T10:48:35.823Z,584.00
2023-03-10T10:52:35.786Z,613.00
2023-03-10T10:56:35.732Z,619.00
2023-03-10T11:00:35.658Z,582.00
2023-03-10T11:04:35.626Z,596.00
2023-03-10T11:08:36.015Z,598.00
2023-03-10T11:12:35.594Z,602.00
2023-03-10T11:16:36.022Z,584.00
2023-03-10T11:20:36.255Z,548.00
2023-03-10T11:24:35.657Z,590.00
2023-03-10T11:28:36.000Z,572.00
2023-03-10T11:32:35.895Z,526.00
2023-03-10T11:36:43.228Z,516.00
2023-03-10T11:40:36.878Z,513.00
2023-03-10T11:44:35.935Z,502.00
2023-03-10T11:48:35.994Z,533.00
2023-03-10T11:52:36.021Z,589.00
2023-03-10T11:56:36.009Z,773.00
2023-03-10T12:00:36.530Z,873.00
2023-03-10T12:04:36.503Z,779.00
2023-03-10T12:08:36.024Z,676.00
2023-03-10T12:12:36.498Z,627.00
2023-03-10T12:16:36.582Z,541.00
2023-03-10T12:20:36.528Z,554.00
2023-03-10T12:24:36.097Z,531.00
2023-03-10T12:28:36.578Z,517.00
2023-03-10T12:32:36.584Z,494.00
2023-03-10T12:36:36.297Z,510.00
2023-03-10T12:40:36.261Z,491.00
2023-03-10T12:44:36.274Z,524.00
2023-03-10T12:48:36.357Z,507.00
2023-03-10T12:52:36.483Z,525.00
2023-03-10T12:56:36.742Z,500.00
2023-03-10T13:00:36.729Z,499.00
2023-03-10T13:04:36.605Z,537.00
2023-03-10T13:08:36.585Z,497.00
2023-03-10T13:12:36.559Z,579.00
2023-03-10T13:16:36.632Z,589.00
2023-03-10T13:20:36.499Z,575.00
2023-03-10T13:24:36.467Z,610.00
2023-03-10T13:28:36.596Z,640.00
2023-03-10T13:32:36.378Z,658.00
2023-03-10T13:36:36.352Z,728.00
2023-03-10T13:40:36.348Z,770.00
2023-03-10T13:44:36.291Z,856.00
2023-03-10T13:48:36.256Z,919.00
2023-03-10T13:52:36.234Z,946.00
2023-03-10T13:56:36.185Z,944.00
2023-03-10T14:00:36.170Z,969.00
2023-03-10T14:04:36.165Z,930.00
2023-03-10T14:08:36.112Z,945.00
2023-03-10T14:12:36.055Z,1017.00
2023-03-10T14:16:36.119Z,935.00
2023-03-10T14:20:36.072Z,1009.00
2023-03-10T14:24:36.125Z,929.00
2023-03-10T14:28:36.350Z,936.00
2023-03-10T14:32:36.608Z,859.00
2023-03-10T14:36:37.119Z,880.00
2023-03-10T14:40:36.487Z,927.00
2023-03-10T14:44:36.458Z,781.00
2023-03-10T14:48:36.426Z,880.00
2023-03-10T14:52:36.372Z,900.00
2023-03-10T14:56:36.345Z,838.00
2023-03-10T15:00:36.325Z,858.00
2023-03-10T15:04:36.446Z,840.00
2023-03-10T15:08:36.596Z,890.00
2023-03-10T15:12:36.573Z,829.00
2023-03-10T15:16:36.550Z,873.00
2023-03-10T15:20:36.485Z,872.00
2023-03-10T15:24:36.452Z,872.00
2023-03-10T15:28:37.289Z,863.00
2023-03-10T15:32:36.440Z,834.00
2023-03-10T15:36:36.327Z,925.00
2023-03-10T15:40:36.305Z,895.00
2023-03-10T15:44:36.302Z,900.00
2023-03-10T15:48:36.329Z,957.00
2023-03-10T15:52:36.339Z,1017.00
2023-03-10T15:56:36.272Z,971.00
2023-03-10T16:00:36.246Z,985.00
2023-03-10T16:04:36.228Z,971.00
2023-03-10T16:08:36.157Z,1043.00
2023-03-10T16:12:36.107Z,963.00
2023-03-10T16:16:36.107Z,897.00
2023-03-10T16:20:36.028Z,1011.00
2023-03-10T16:24:35.994Z,1057.00
2023-03-10T16:28:35.978Z,1004.00
2023-03-10T16:32:36.241Z,1077.00
2023-03-10T16:36:36.294Z,816.00
2023-03-10T16:40:36.282Z,786.00
2023-03-10T16:44:36.277Z,735.00
2023-03-10T16:48:36.264Z,691.00
2023-03-10T16:52:36.202Z,677.00
2023-03-10T16:56:36.142Z,646.00
2023-03-10T17:00:36.092Z,650.00
2023-03-10T17:04:36.085Z,644.00
2023-03-10T17:08:36.064Z,634.00
2023-03-10T17:12:35.980Z,630.00
2023-03-10T17:16:35.984Z,611.00
2023-03-10T17:20:35.992Z,622.00
2023-03-10T17:24:37.201Z,625.00
2023-03-10T17:28:35.872Z,631.00
2023-03-10T17:32:35.862Z,626.00
2023-03-10T17:36:35.828Z,633.00
2023-03-10T17:40:35.730Z,626.00
2023-03-10T17:44:35.717Z,622.00
2023-03-10T17:48:35.681Z,607.00
2023-03-10T17:52:35.617Z,602.00
2023-03-10T17:56:35.598Z,615.00
2023-03-10T18:00:35.596Z,595.00
2023-03-10T18:04:35.538Z,609.00
2023-03-10T18:08:35.481Z,608.00
2023-03-10T18:12:35.452Z,588.00
2023-03-10T18:16:35.456Z,592.00
2023-03-10T18:20:35.529Z,593.00
2023-03-10T18:24:35.579Z,594.00
2023-03-10T18:28:35.690Z,577.00
2023-03-10T18:32:35.784Z,612.00
2023-03-10T18:36:35.929Z,580.00
2023-03-10T18:40:35.956Z,600.00
2023-03-10T18:44:36.055Z,591.00
2023-03-10T18:48:36.173Z,587.00
2023-03-10T18:52:36.221Z,580.00
2023-03-10T18:56:36.368Z,583.00
2023-03-10T19:00:36.469Z,597.00
2023-03-10T19:04:36.570Z,581.00
2023-03-10T19:08:37.223Z,584.00
2023-03-10T19:12:36.853Z,597.00
2023-03-10T19:16:36.977Z,560.00
2023-03-10T19:20:37.157Z,553.00
2023-03-10T19:24:37.294Z,553.00
2023-03-10T19:28:37.463Z,572.00
2023-03-10T19:32:37.738Z,596.00
2023-03-10T19:36:37.782Z,566.00
2023-03-10T19:40:37.936Z,594.00
2023-03-10T19:44:38.088Z,575.00
2023-03-10T19:48:38.287Z,556.00
2023-03-10T19:52:38.468Z,562.00
2023-03-10T19:56:38.638Z,615.00
2023-03-10T20:00:38.871Z,538.00
2023-03-10T20:04:39.031Z,584.00
2023-03-10T20:08:39.242Z,538.00
2023-03-10T20:12:39.438Z,567.00
2023-03-10T20:16:39.657Z,515.00
2023-03-10T20:20:39.851Z,512.00
2023-03-10T20:24:40.070Z,518.00
2023-03-10T20:28:40.244Z,520.00
2023-03-10T20:32:40.330Z,521.00
2023-03-10T20:36:40.178Z,531.00
2023-03-10T20:40:40.180Z,553.00
2023-03-10T20:44:40.142Z,536.00
2023-03-10T20:48:40.112Z,571.00
2023-03-10T20:52:40.086Z,537.00
2023-03-10T20:56:39.997Z,532.00
2023-03-10T21:00:39.970Z,543.00
2023-03-10T21:04:39.967Z,518.00
2023-03-10T21:08:40.023Z,554.00
2023-03-10T21:12:39.991Z,526.00
2023-03-10T21:16:39.994Z,506.00
2023-03-10T21:20:39.887Z,541.00
2023-03-10T21:24:39.877Z,540.00
2023-03-10T21:28:39.860Z,533.00
2023-03-10T21:32:39.810Z,561.00
2023-03-10T21:36:39.752Z,529.00
2023-03-10T21:40:39.736Z,557.00
2023-03-10T21:44:39.715Z,520.00
2023-03-10T21:48:39.711Z,554.00
2023-03-10T21:52:39.948Z,549.00
2023-03-10T21:56:40.155Z,540.00
2023-03-10T22:00:40.340Z,544.00
2023-03-10T22:04:40.573Z,544.00
2023-03-10T22:08:40.775Z,567.00
2023-03-10T22:12:40.965Z,543.00
2023-03-10T22:16:40.925Z,509.00
2023-03-10T22:20:40.920Z,550.00
2023-03-10T22:24:40.852Z,535.00
2023-03-10T22:28:40.849Z,521.00
2023-03-10T22:32:40.981Z,508.00
2023-03-10T22:36:40.728Z,561.00
2023-03-10T22:40:40.745Z,526.00
2023-03-10T22:44:40.676Z,516.00
2023-03-10T22:48:40.749Z,554.00
2023-03-10T22:52:40.578Z,601.00
2023-03-10T22:56:40.587Z,546.00
2023-03-10T23:00:40.559Z,595.00
2023-03-10T23:04:40.501Z,533.00
2023-03-10T23:08:40.459Z,513.00
2023-03-10T23:12:40.441Z,540.00
2023-03-10T23:16:40.479Z,547.00
2023-03-10T23:20:40.333Z,562.00
2023-03-10T23:24:40.356Z,596.00
2023-03-10T23:28:40.291Z,563.00
2023-03-10T23:32:40.269Z,597.00
2023-03-10T23:36:40.212Z,594.00
2023-03-10T23:40:40.274Z,572.00
2023-03-10T23:44:40.128Z,565.00
2023-03-10T23:48:40.099Z,558.00
2023-03-10T23:52:40.056Z,629.00
2023-03-10T23:56:40.283Z,563.00
